sensor_id;sensor_type;location;lat;lon;timestamp;P1;durP1;ratioP1;P2;durP2;ratioP2
71558;SDS011;59382;43.852;25.952;2022-07-30T00:02:02;8.68;;;4.80;;
71558;SDS011;59382;43.852;25.952;2022-07-30T00:04:28;9.43;;;3.90;;
71558;SDS011;59382;43.852;25.952;2022-07-30T00:06:54;6.28;;;3.00;;
71558;SDS011;59382;43.852;25.952;2022-07-30T00:09:19;8.07;;;3.85;;
71558;SDS011;59382;43.852;25.952;2022-07-30T00:11:45;13.52;;;5.50;;
71558;SDS011;59382;43.852;25.952;2022-07-30T00:14:10;13.93;;;5.00;;
71558;SDS011;59382;43.852;25.952;2022-07-30T00:16:36;8.20;;;3.60;;
71558;SDS011;59382;43.852;25.952;2022-07-30T00:19:02;6.97;;;3.75;;
71558;SDS011;59382;43.852;25.952;2022-07-30T00:21:28;19.95;;;4.75;;
71558;SDS011;59382;43.852;25.952;2022-07-30T00:23:53;16.95;;;4.65;;
71558;SDS011;59382;43.852;25.952;2022-07-30T00:26:19;12.50;;;4.15;;
71558;SDS011;59382;43.852;25.952;2022-07-30T00:28:46;11.38;;;4.05;;
71558;SDS011;59382;43.852;25.952;2022-07-30T00:31:12;15.15;;;4.20;;
71558;SDS011;59382;43.852;25.952;2022-07-30T00:33:37;12.70;;;4.28;;
71558;SDS011;59382;43.852;25.952;2022-07-30T00:36:03;7.45;;;3.50;;
71558;SDS011;59382;43.852;25.952;2022-07-30T00:38:29;11.93;;;3.50;;
71558;SDS011;59382;43.852;25.952;2022-07-30T00:40:54;11.07;;;5.63;;
71558;SDS011;59382;43.852;25.952;2022-07-30T00:43:20;12.90;;;3.83;;
71558;SDS011;59382;43.852;25.952;2022-07-30T00:45:45;8.07;;;3.67;;
71558;SDS011;59382;43.852;25.952;2022-07-30T00:48:12;6.32;;;3.03;;
71558;SDS011;59382;43.852;25.952;2022-07-30T00:50:38;9.80;;;3.30;;
71558;SDS011;59382;43.852;25.952;2022-07-30T00:53:05;8.45;;;3.78;;
71558;SDS011;59382;43.852;25.952;2022-07-30T00:55:31;10.10;;;4.05;;
71558;SDS011;59382;43.852;25.952;2022-07-30T00:57:57;6.55;;;3.70;;
71558;SDS011;59382;43.852;25.952;2022-07-30T01:00:23;9.85;;;4.57;;
71558;SDS011;59382;43.852;25.952;2022-07-30T01:02:49;6.47;;;3.50;;
71558;SDS011;59382;43.852;25.952;2022-07-30T01:05:15;8.80;;;3.72;;
71558;SDS011;59382;43.852;25.952;2022-07-30T01:07:41;14.98;;;3.90;;
71558;SDS011;59382;43.852;25.952;2022-07-30T01:10:07;9.93;;;3.72;;
71558;SDS011;59382;43.852;25.952;2022-07-30T01:12:35;11.50;;;3.60;;
71558;SDS011;59382;43.852;25.952;2022-07-30T01:15:05;10.55;;;3.75;;
71558;SDS011;59382;43.852;25.952;2022-07-30T01:17:32;8.98;;;3.70;;
71558;SDS011;59382;43.852;25.952;2022-07-30T01:19:59;11.70;;;4.25;;
71558;SDS011;59382;43.852;25.952;2022-07-30T01:22:34;9.98;;;4.22;;
71558;SDS011;59382;43.852;25.952;2022-07-30T01:28:13;11.10;;;4.50;;
71558;SDS011;59382;43.852;25.952;2022-07-30T01:30:42;12.50;;;4.43;;
71558;SDS011;59382;43.852;25.952;2022-07-30T01:33:10;15.02;;;4.30;;
71558;SDS011;59382;43.852;25.952;2022-07-30T01:35:39;11.30;;;4.78;;
71558;SDS011;59382;43.852;25.952;2022-07-30T01:38:07;10.65;;;4.78;;
71558;SDS011;59382;43.852;25.952;2022-07-30T01:40:37;7.38;;;4.40;;
71558;SDS011;59382;43.852;25.952;2022-07-30T01:43:03;9.48;;;5.20;;
71558;SDS011;59382;43.852;25.952;2022-07-30T01:45:31;11.13;;;6.63;;
71558;SDS011;59382;43.852;25.952;2022-07-30T01:48:00;11.65;;;4.15;;
71558;SDS011;59382;43.852;25.952;2022-07-30T01:50:29;5.63;;;3.88;;
71558;SDS011;59382;43.852;25.952;2022-07-30T01:52:56;5.10;;;3.85;;
71558;SDS011;59382;43.852;25.952;2022-07-30T01:55:36;7.90;;;3.72;;
71558;SDS011;59382;43.852;25.952;2022-07-30T01:58:04;6.85;;;4.38;;
71558;SDS011;59382;43.852;25.952;2022-07-30T02:00:32;7.60;;;3.97;;
71558;SDS011;59382;43.852;25.952;2022-07-30T02:03:00;5.70;;;4.50;;
71558;SDS011;59382;43.852;25.952;2022-07-30T02:05:26;9.10;;;4.13;;
71558;SDS011;59382;43.852;25.952;2022-07-30T02:08:00;9.73;;;4.05;;
71558;SDS011;59382;43.852;25.952;2022-07-30T02:13:09;7.90;;;3.60;;
71558;SDS011;59382;43.852;25.952;2022-07-30T02:15:56;9.27;;;3.80;;
71558;SDS011;59382;43.852;25.952;2022-07-30T02:21:00;9.50;;;4.15;;
71558;SDS011;59382;43.852;25.952;2022-07-30T02:23:29;7.60;;;3.80;;
71558;SDS011;59382;43.852;25.952;2022-07-30T02:25:59;6.82;;;4.20;;
71558;SDS011;59382;43.852;25.952;2022-07-30T02:28:28;9.18;;;3.70;;
71558;SDS011;59382;43.852;25.952;2022-07-30T02:30:58;8.30;;;3.88;;
71558;SDS011;59382;43.852;25.952;2022-07-30T02:33:26;6.63;;;3.92;;
71558;SDS011;59382;43.852;25.952;2022-07-30T02:35:54;7.47;;;4.30;;
71558;SDS011;59382;43.852;25.952;2022-07-30T02:38:22;11.73;;;3.97;;
71558;SDS011;59382;43.852;25.952;2022-07-30T02:40:52;7.03;;;4.38;;
71558;SDS011;59382;43.852;25.952;2022-07-30T02:43:20;6.90;;;3.88;;
71558;SDS011;59382;43.852;25.952;2022-07-30T02:45:50;6.53;;;4.13;;
71558;SDS011;59382;43.852;25.952;2022-07-30T02:48:16;7.95;;;4.72;;
71558;SDS011;59382;43.852;25.952;2022-07-30T02:50:44;8.40;;;4.20;;
71558;SDS011;59382;43.852;25.952;2022-07-30T02:53:13;8.27;;;4.55;;
71558;SDS011;59382;43.852;25.952;2022-07-30T02:55:40;9.18;;;4.28;;
71558;SDS011;59382;43.852;25.952;2022-07-30T02:58:07;7.55;;;4.43;;
71558;SDS011;59382;43.852;25.952;2022-07-30T03:00:35;5.65;;;4.25;;
71558;SDS011;59382;43.852;25.952;2022-07-30T03:03:04;8.02;;;4.82;;
71558;SDS011;59382;43.852;25.952;2022-07-30T03:05:31;5.90;;;4.38;;
71558;SDS011;59382;43.852;25.952;2022-07-30T03:07:57;8.52;;;4.18;;
71558;SDS011;59382;43.852;25.952;2022-07-30T03:10:24;6.75;;;4.03;;
71558;SDS011;59382;43.852;25.952;2022-07-30T03:12:51;8.57;;;4.88;;
71558;SDS011;59382;43.852;25.952;2022-07-30T03:15:17;6.47;;;4.13;;
71558;SDS011;59382;43.852;25.952;2022-07-30T03:17:44;7.95;;;4.88;;
71558;SDS011;59382;43.852;25.952;2022-07-30T03:20:14;19.17;;;4.50;;
71558;SDS011;59382;43.852;25.952;2022-07-30T03:22:43;9.98;;;4.40;;
71558;SDS011;59382;43.852;25.952;2022-07-30T03:25:13;6.38;;;4.22;;
71558;SDS011;59382;43.852;25.952;2022-07-30T03:27:43;8.70;;;4.85;;
71558;SDS011;59382;43.852;25.952;2022-07-30T03:30:10;9.10;;;4.53;;
71558;SDS011;59382;43.852;25.952;2022-07-30T03:32:36;6.63;;;4.15;;
71558;SDS011;59382;43.852;25.952;2022-07-30T03:35:04;7.97;;;4.68;;
71558;SDS011;59382;43.852;25.952;2022-07-30T03:37:31;7.97;;;4.40;;
71558;SDS011;59382;43.852;25.952;2022-07-30T03:40:00;7.70;;;4.32;;
71558;SDS011;59382;43.852;25.952;2022-07-30T03:42:26;10.25;;;4.90;;
71558;SDS011;59382;43.852;25.952;2022-07-30T03:44:52;13.85;;;4.63;;
71558;SDS011;59382;43.852;25.952;2022-07-30T03:47:18;7.10;;;4.50;;
71558;SDS011;59382;43.852;25.952;2022-07-30T03:49:51;9.18;;;4.60;;
71558;SDS011;59382;43.852;25.952;2022-07-30T03:52:17;9.88;;;6.35;;
71558;SDS011;59382;43.852;25.952;2022-07-30T03:54:44;8.23;;;4.97;;
71558;SDS011;59382;43.852;25.952;2022-07-30T03:57:11;11.60;;;4.78;;
71558;SDS011;59382;43.852;25.952;2022-07-30T03:59:37;8.68;;;4.90;;
71558;SDS011;59382;43.852;25.952;2022-07-30T04:02:03;5.70;;;4.78;;
71558;SDS011;59382;43.852;25.952;2022-07-30T04:04:29;9.18;;;4.88;;
71558;SDS011;59382;43.852;25.952;2022-07-30T04:06:55;10.02;;;5.28;;
71558;SDS011;59382;43.852;25.952;2022-07-30T04:09:22;6.65;;;4.90;;
71558;SDS011;59382;43.852;25.952;2022-07-30T04:11:47;12.82;;;5.18;;
71558;SDS011;59382;43.852;25.952;2022-07-30T04:14:13;5.88;;;5.30;;
71558;SDS011;59382;43.852;25.952;2022-07-30T04:16:43;10.50;;;5.70;;
71558;SDS011;59382;43.852;25.952;2022-07-30T04:19:17;5.78;;;5.20;;
71558;SDS011;59382;43.852;25.952;2022-07-30T04:21:47;6.72;;;5.43;;
71558;SDS011;59382;43.852;25.952;2022-07-30T04:24:14;7.72;;;5.82;;
71558;SDS011;59382;43.852;25.952;2022-07-30T04:26:42;7.38;;;5.45;;
71558;SDS011;59382;43.852;25.952;2022-07-30T04:29:10;7.65;;;6.38;;
71558;SDS011;59382;43.852;25.952;2022-07-30T04:31:36;10.05;;;6.20;;
71558;SDS011;59382;43.852;25.952;2022-07-30T04:34:03;11.15;;;6.07;;
71558;SDS011;59382;43.852;25.952;2022-07-30T04:36:29;10.75;;;6.07;;
71558;SDS011;59382;43.852;25.952;2022-07-30T04:38:56;10.45;;;6.03;;
71558;SDS011;59382;43.852;25.952;2022-07-30T04:41:22;11.73;;;6.72;;
71558;SDS011;59382;43.852;25.952;2022-07-30T04:43:47;7.80;;;5.90;;
71558;SDS011;59382;43.852;25.952;2022-07-30T04:46:13;10.23;;;6.57;;
71558;SDS011;59382;43.852;25.952;2022-07-30T04:48:39;15.85;;;6.90;;
71558;SDS011;59382;43.852;25.952;2022-07-30T04:51:06;15.85;;;6.70;;
71558;SDS011;59382;43.852;25.952;2022-07-30T04:53:37;14.70;;;7.13;;
71558;SDS011;59382;43.852;25.952;2022-07-30T04:56:04;22.80;;;8.52;;
71558;SDS011;59382;43.852;25.952;2022-07-30T04:58:31;16.80;;;7.97;;
71558;SDS011;59382;43.852;25.952;2022-07-30T05:00:58;18.83;;;8.07;;
71558;SDS011;59382;43.852;25.952;2022-07-30T05:03:26;16.83;;;8.10;;
71558;SDS011;59382;43.852;25.952;2022-07-30T05:05:54;15.57;;;7.95;;
71558;SDS011;59382;43.852;25.952;2022-07-30T05:08:24;20.85;;;9.00;;
71558;SDS011;59382;43.852;25.952;2022-07-30T05:10:51;21.23;;;9.15;;
71558;SDS011;59382;43.852;25.952;2022-07-30T05:13:16;17.80;;;10.25;;
71558;SDS011;59382;43.852;25.952;2022-07-30T05:15:42;23.63;;;8.95;;
71558;SDS011;59382;43.852;25.952;2022-07-30T05:18:11;20.55;;;9.68;;
71558;SDS011;59382;43.852;25.952;2022-07-30T05:20:37;23.27;;;9.20;;
71558;SDS011;59382;43.852;25.952;2022-07-30T05:23:03;23.13;;;8.82;;
71558;SDS011;59382;43.852;25.952;2022-07-30T05:25:29;23.33;;;9.38;;
71558;SDS011;59382;43.852;25.952;2022-07-30T05:27:55;15.25;;;8.18;;
71558;SDS011;59382;43.852;25.952;2022-07-30T05:30:22;17.52;;;7.85;;
71558;SDS011;59382;43.852;25.952;2022-07-30T05:32:48;17.77;;;8.65;;
71558;SDS011;59382;43.852;25.952;2022-07-30T05:35:14;18.95;;;7.68;;
71558;SDS011;59382;43.852;25.952;2022-07-30T05:37:40;12.77;;;8.00;;
71558;SDS011;59382;43.852;25.952;2022-07-30T05:40:05;14.25;;;7.60;;
71558;SDS011;59382;43.852;25.952;2022-07-30T05:42:34;18.52;;;8.15;;
71558;SDS011;59382;43.852;25.952;2022-07-30T05:45:00;11.05;;;8.20;;
71558;SDS011;59382;43.852;25.952;2022-07-30T05:47:26;15.73;;;8.18;;
71558;SDS011;59382;43.852;25.952;2022-07-30T05:49:51;11.80;;;7.15;;
71558;SDS011;59382;43.852;25.952;2022-07-30T05:52:17;14.35;;;7.35;;
71558;SDS011;59382;43.852;25.952;2022-07-30T05:54:44;11.55;;;7.93;;
71558;SDS011;59382;43.852;25.952;2022-07-30T05:57:09;11.20;;;8.13;;
71558;SDS011;59382;43.852;25.952;2022-07-30T05:59:35;12.27;;;8.55;;
71558;SDS011;59382;43.852;25.952;2022-07-30T06:02:01;12.07;;;7.75;;
71558;SDS011;59382;43.852;25.952;2022-07-30T06:04:27;14.48;;;7.68;;
71558;SDS011;59382;43.852;25.952;2022-07-30T06:06:53;9.23;;;7.65;;
71558;SDS011;59382;43.852;25.952;2022-07-30T06:09:19;9.93;;;7.75;;
71558;SDS011;59382;43.852;25.952;2022-07-30T06:11:45;15.07;;;7.22;;
71558;SDS011;59382;43.852;25.952;2022-07-30T06:14:10;11.57;;;7.45;;
71558;SDS011;59382;43.852;25.952;2022-07-30T06:16:36;13.50;;;7.78;;
71558;SDS011;59382;43.852;25.952;2022-07-30T06:19:03;14.00;;;8.27;;
71558;SDS011;59382;43.852;25.952;2022-07-30T06:21:29;15.82;;;7.40;;
71558;SDS011;59382;43.852;25.952;2022-07-30T06:23:56;16.63;;;6.93;;
71558;SDS011;59382;43.852;25.952;2022-07-30T06:26:21;15.00;;;6.95;;
71558;SDS011;59382;43.852;25.952;2022-07-30T06:28:47;11.93;;;7.22;;
71558;SDS011;59382;43.852;25.952;2022-07-30T06:31:12;21.02;;;8.15;;
71558;SDS011;59382;43.852;25.952;2022-07-30T06:33:39;12.20;;;7.07;;
71558;SDS011;59382;43.852;25.952;2022-07-30T06:36:04;10.50;;;6.60;;
71558;SDS011;59382;43.852;25.952;2022-07-30T06:38:30;10.57;;;6.53;;
71558;SDS011;59382;43.852;25.952;2022-07-30T06:40:56;11.23;;;7.22;;
71558;SDS011;59382;43.852;25.952;2022-07-30T06:43:22;10.80;;;7.10;;
71558;SDS011;59382;43.852;25.952;2022-07-30T06:45:47;19.85;;;7.10;;
71558;SDS011;59382;43.852;25.952;2022-07-30T06:48:13;14.88;;;7.88;;
71558;SDS011;59382;43.852;25.952;2022-07-30T06:50:39;15.75;;;7.15;;
71558;SDS011;59382;43.852;25.952;2022-07-30T06:53:05;12.05;;;7.10;;
71558;SDS011;59382;43.852;25.952;2022-07-30T06:55:31;15.65;;;5.90;;
71558;SDS011;59382;43.852;25.952;2022-07-30T06:57:57;9.55;;;5.50;;
71558;SDS011;59382;43.852;25.952;2022-07-30T07:00:23;7.57;;;5.65;;
71558;SDS011;59382;43.852;25.952;2022-07-30T07:02:50;10.02;;;6.15;;
71558;SDS011;59382;43.852;25.952;2022-07-30T07:05:16;9.50;;;5.13;;
71558;SDS011;59382;43.852;25.952;2022-07-30T07:07:42;6.65;;;5.22;;
71558;SDS011;59382;43.852;25.952;2022-07-30T07:10:08;12.57;;;5.65;;
71558;SDS011;59382;43.852;25.952;2022-07-30T07:12:34;12.48;;;7.88;;
71558;SDS011;59382;43.852;25.952;2022-07-30T07:14:59;11.07;;;8.93;;
71558;SDS011;59382;43.852;25.952;2022-07-30T07:17:25;10.35;;;8.02;;
71558;SDS011;59382;43.852;25.952;2022-07-30T07:19:52;11.18;;;5.45;;
71558;SDS011;59382;43.852;25.952;2022-07-30T07:22:18;6.60;;;4.85;;
71558;SDS011;59382;43.852;25.952;2022-07-30T07:24:43;6.72;;;6.00;;
71558;SDS011;59382;43.852;25.952;2022-07-30T07:27:09;8.65;;;6.03;;
71558;SDS011;59382;43.852;25.952;2022-07-30T07:29:35;7.05;;;5.90;;
71558;SDS011;59382;43.852;25.952;2022-07-30T07:32:00;7.95;;;5.25;;
71558;SDS011;59382;43.852;25.952;2022-07-30T07:34:26;8.02;;;6.20;;
71558;SDS011;59382;43.852;25.952;2022-07-30T07:36:51;6.45;;;5.00;;
71558;SDS011;59382;43.852;25.952;2022-07-30T07:39:17;23.95;;;15.50;;
71558;SDS011;59382;43.852;25.952;2022-07-30T07:41:45;10.57;;;9.48;;
71558;SDS011;59382;43.852;25.952;2022-07-30T07:44:11;9.40;;;5.68;;
71558;SDS011;59382;43.852;25.952;2022-07-30T07:46:36;8.95;;;6.18;;
71558;SDS011;59382;43.852;25.952;2022-07-30T07:49:02;6.10;;;5.22;;
71558;SDS011;59382;43.852;25.952;2022-07-30T07:51:27;5.18;;;4.70;;
71558;SDS011;59382;43.852;25.952;2022-07-30T07:53:53;7.15;;;5.70;;
71558;SDS011;59382;43.852;25.952;2022-07-30T07:56:21;9.23;;;5.40;;
71558;SDS011;59382;43.852;25.952;2022-07-30T07:58:47;9.10;;;5.25;;
71558;SDS011;59382;43.852;25.952;2022-07-30T08:01:15;8.95;;;5.10;;
71558;SDS011;59382;43.852;25.952;2022-07-30T08:03:44;7.63;;;4.47;;
71558;SDS011;59382;43.852;25.952;2022-07-30T08:06:09;7.25;;;5.00;;
71558;SDS011;59382;43.852;25.952;2022-07-30T08:08:35;6.78;;;5.30;;
71558;SDS011;59382;43.852;25.952;2022-07-30T08:11:01;8.20;;;4.65;;
71558;SDS011;59382;43.852;25.952;2022-07-30T08:13:27;5.47;;;4.97;;
71558;SDS011;59382;43.852;25.952;2022-07-30T08:15:53;6.07;;;4.75;;
71558;SDS011;59382;43.852;25.952;2022-07-30T08:18:18;9.77;;;6.82;;
71558;SDS011;59382;43.852;25.952;2022-07-30T08:20:44;8.23;;;6.63;;
71558;SDS011;59382;43.852;25.952;2022-07-30T08:23:10;23.05;;;13.65;;
71558;SDS011;59382;43.852;25.952;2022-07-30T08:25:35;11.82;;;10.52;;
71558;SDS011;59382;43.852;25.952;2022-07-30T08:28:01;7.78;;;5.63;;
71558;SDS011;59382;43.852;25.952;2022-07-30T08:30:27;7.25;;;4.80;;
71558;SDS011;59382;43.852;25.952;2022-07-30T08:32:54;6.20;;;5.32;;
71558;SDS011;59382;43.852;25.952;2022-07-30T08:35:19;6.00;;;5.22;;
71558;SDS011;59382;43.852;25.952;2022-07-30T08:37:45;7.35;;;5.65;;
71558;SDS011;59382;43.852;25.952;2022-07-30T08:40:10;6.72;;;6.00;;
71558;SDS011;59382;43.852;25.952;2022-07-30T08:42:36;6.30;;;5.45;;
71558;SDS011;59382;43.852;25.952;2022-07-30T08:45:02;5.80;;;5.03;;
71558;SDS011;59382;43.852;25.952;2022-07-30T08:47:32;5.72;;;4.90;;
71558;SDS011;59382;43.852;25.952;2022-07-30T08:49:58;5.30;;;4.80;;
71558;SDS011;59382;43.852;25.952;2022-07-30T08:52:29;14.60;;;4.72;;
71558;SDS011;59382;43.852;25.952;2022-07-30T08:55:03;11.80;;;4.88;;
71558;SDS011;59382;43.852;25.952;2022-07-30T08:57:30;5.72;;;5.15;;
71558;SDS011;59382;43.852;25.952;2022-07-30T08:59:57;5.75;;;5.13;;
71558;SDS011;59382;43.852;25.952;2022-07-30T09:02:23;5.32;;;4.68;;
71558;SDS011;59382;43.852;25.952;2022-07-30T09:04:50;7.03;;;4.63;;
71558;SDS011;59382;43.852;25.952;2022-07-30T09:07:15;6.80;;;5.13;;
71558;SDS011;59382;43.852;25.952;2022-07-30T09:09:41;7.13;;;4.63;;
71558;SDS011;59382;43.852;25.952;2022-07-30T09:15:14;4.85;;;4.25;;
71558;SDS011;59382;43.852;25.952;2022-07-30T09:17:45;11.93;;;4.82;;
71558;SDS011;59382;43.852;25.952;2022-07-30T09:20:10;5.63;;;4.97;;
71558;SDS011;59382;43.852;25.952;2022-07-30T09:22:43;7.43;;;5.50;;
71558;SDS011;59382;43.852;25.952;2022-07-30T09:25:10;17.48;;;4.93;;
71558;SDS011;59382;43.852;25.952;2022-07-30T09:27:46;4.85;;;4.25;;
71558;SDS011;59382;43.852;25.952;2022-07-30T09:30:14;7.00;;;4.65;;
71558;SDS011;59382;43.852;25.952;2022-07-30T09:32:53;5.72;;;4.43;;
71558;SDS011;59382;43.852;25.952;2022-07-30T09:35:21;6.15;;;4.28;;
71558;SDS011;59382;43.852;25.952;2022-07-30T09:37:55;5.47;;;4.40;;
71558;SDS011;59382;43.852;25.952;2022-07-30T09:40:23;4.78;;;4.38;;
71558;SDS011;59382;43.852;25.952;2022-07-30T09:43:00;5.28;;;4.88;;
71558;SDS011;59382;43.852;25.952;2022-07-30T09:45:27;4.57;;;4.22;;
71558;SDS011;59382;43.852;25.952;2022-07-30T09:47:53;9.38;;;5.22;;
71558;SDS011;59382;43.852;25.952;2022-07-30T09:50:19;5.65;;;5.03;;
71558;SDS011;59382;43.852;25.952;2022-07-30T09:52:46;10.40;;;5.38;;
71558;SDS011;59382;43.852;25.952;2022-07-30T09:55:13;6.55;;;5.20;;
71558;SDS011;59382;43.852;25.952;2022-07-30T09:57:54;4.93;;;4.30;;
71558;SDS011;59382;43.852;25.952;2022-07-30T10:00:24;4.88;;;4.45;;
71558;SDS011;59382;43.852;25.952;2022-07-30T10:02:54;6.63;;;5.25;;
71558;SDS011;59382;43.852;25.952;2022-07-30T10:05:21;5.50;;;4.63;;
71558;SDS011;59382;43.852;25.952;2022-07-30T10:07:58;7.15;;;4.93;;
71558;SDS011;59382;43.852;25.952;2022-07-30T10:10:27;6.22;;;4.45;;
71558;SDS011;59382;43.852;25.952;2022-07-30T10:12:58;5.15;;;4.65;;
71558;SDS011;59382;43.852;25.952;2022-07-30T10:15:29;5.03;;;4.47;;
71558;SDS011;59382;43.852;25.952;2022-07-30T10:18:02;5.00;;;4.20;;
71558;SDS011;59382;43.852;25.952;2022-07-30T10:20:29;6.25;;;4.05;;
71558;SDS011;59382;43.852;25.952;2022-07-30T10:22:56;5.03;;;4.20;;
71558;SDS011;59382;43.852;25.952;2022-07-30T10:25:25;7.18;;;4.72;;
71558;SDS011;59382;43.852;25.952;2022-07-30T10:27:54;5.95;;;4.60;;
71558;SDS011;59382;43.852;25.952;2022-07-30T10:30:20;8.30;;;5.10;;
71558;SDS011;59382;43.852;25.952;2022-07-30T10:32:45;7.88;;;4.15;;
71558;SDS011;59382;43.852;25.952;2022-07-30T10:35:12;6.15;;;3.85;;
71558;SDS011;59382;43.852;25.952;2022-07-30T10:37:42;5.88;;;3.90;;
71558;SDS011;59382;43.852;25.952;2022-07-30T10:45:54;6.80;;;4.53;;
71558;SDS011;59382;43.852;25.952;2022-07-30T10:48:37;4.47;;;3.92;;
71558;SDS011;59382;43.852;25.952;2022-07-30T10:51:04;5.70;;;4.15;;
71558;SDS011;59382;43.852;25.952;2022-07-30T10:58:58;6.10;;;4.18;;
71558;SDS011;59382;43.852;25.952;2022-07-30T11:02:12;9.48;;;4.35;;
71558;SDS011;59382;43.852;25.952;2022-07-30T11:04:19;7.10;;;4.05;;
71558;SDS011;59382;43.852;25.952;2022-07-30T11:09:45;3.90;;;3.60;;
71558;SDS011;59382;43.852;25.952;2022-07-30T11:12:12;4.00;;;3.45;;
71558;SDS011;59382;43.852;25.952;2022-07-30T11:22:34;6.13;;;3.85;;
71558;SDS011;59382;43.852;25.952;2022-07-30T11:25:07;4.47;;;4.07;;
71558;SDS011;59382;43.852;25.952;2022-07-30T11:27:41;5.15;;;4.30;;
71558;SDS011;59382;43.852;25.952;2022-07-30T11:32:41;9.05;;;4.07;;
71558;SDS011;59382;43.852;25.952;2022-07-30T11:35:24;4.30;;;3.88;;
71558;SDS011;59382;43.852;25.952;2022-07-30T11:40:23;5.75;;;3.40;;
71558;SDS011;59382;43.852;25.952;2022-07-30T11:42:50;4.35;;;3.10;;
71558;SDS011;59382;43.852;25.952;2022-07-30T11:45:19;4.65;;;3.80;;
71558;SDS011;59382;43.852;25.952;2022-07-30T11:47:48;4.45;;;4.05;;
71558;SDS011;59382;43.852;25.952;2022-07-30T11:52:52;5.97;;;3.70;;
71558;SDS011;59382;43.852;25.952;2022-07-30T11:57:54;5.07;;;4.15;;
71558;SDS011;59382;43.852;25.952;2022-07-30T12:00:21;4.53;;;4.13;;
71558;SDS011;59382;43.852;25.952;2022-07-30T12:02:47;3.90;;;3.55;;
71558;SDS011;59382;43.852;25.952;2022-07-30T12:05:13;6.97;;;4.10;;
71558;SDS011;59382;43.852;25.952;2022-07-30T12:07:39;3.92;;;3.58;;
71558;SDS011;59382;43.852;25.952;2022-07-30T12:10:14;5.85;;;3.30;;
71558;SDS011;59382;43.852;25.952;2022-07-30T12:12:42;3.90;;;3.60;;
71558;SDS011;59382;43.852;25.952;2022-07-30T12:15:10;5.55;;;3.97;;
71558;SDS011;59382;43.852;25.952;2022-07-30T12:17:52;5.18;;;3.38;;
71558;SDS011;59382;43.852;25.952;2022-07-30T12:20:18;6.72;;;3.38;;
71558;SDS011;59382;43.852;25.952;2022-07-30T12:22:45;3.65;;;3.35;;
71558;SDS011;59382;43.852;25.952;2022-07-30T12:25:11;3.85;;;3.55;;
71558;SDS011;59382;43.852;25.952;2022-07-30T12:27:38;4.25;;;3.80;;
71558;SDS011;59382;43.852;25.952;2022-07-30T12:30:04;9.30;;;3.60;;
71558;SDS011;59382;43.852;25.952;2022-07-30T12:32:31;8.88;;;4.20;;
71558;SDS011;59382;43.852;25.952;2022-07-30T12:34:57;4.50;;;4.07;;
71558;SDS011;59382;43.852;25.952;2022-07-30T12:37:23;4.50;;;3.60;;
71558;SDS011;59382;43.852;25.952;2022-07-30T12:39:49;4.07;;;3.78;;
71558;SDS011;59382;43.852;25.952;2022-07-30T12:42:48;4.03;;;3.55;;
71558;SDS011;59382;43.852;25.952;2022-07-30T12:45:28;4.18;;;3.88;;
71558;SDS011;59382;43.852;25.952;2022-07-30T12:47:56;5.38;;;4.22;;
71558;SDS011;59382;43.852;25.952;2022-07-30T12:50:22;4.32;;;3.92;;
71558;SDS011;59382;43.852;25.952;2022-07-30T12:52:49;4.15;;;3.63;;
71558;SDS011;59382;43.852;25.952;2022-07-30T12:55:16;4.13;;;3.72;;
71558;SDS011;59382;43.852;25.952;2022-07-30T12:58:05;4.35;;;3.70;;
71558;SDS011;59382;43.852;25.952;2022-07-30T13:00:45;6.50;;;3.75;;
71558;SDS011;59382;43.852;25.952;2022-07-30T13:03:26;6.03;;;3.30;;
71558;SDS011;59382;43.852;25.952;2022-07-30T13:05:53;5.20;;;3.30;;
71558;SDS011;59382;43.852;25.952;2022-07-30T13:08:20;3.88;;;3.45;;
71558;SDS011;59382;43.852;25.952;2022-07-30T13:11:05;7.03;;;3.30;;
71558;SDS011;59382;43.852;25.952;2022-07-30T13:13:31;8.35;;;3.80;;
71558;SDS011;59382;43.852;25.952;2022-07-30T13:16:02;4.82;;;3.83;;
71558;SDS011;59382;43.852;25.952;2022-07-30T13:18:29;3.33;;;3.03;;
71558;SDS011;59382;43.852;25.952;2022-07-30T13:20:59;3.63;;;3.13;;
71558;SDS011;59382;43.852;25.952;2022-07-30T13:23:26;4.80;;;2.97;;
71558;SDS011;59382;43.852;25.952;2022-07-30T13:25:52;4.78;;;2.80;;
71558;SDS011;59382;43.852;25.952;2022-07-30T13:28:18;4.22;;;3.85;;
71558;SDS011;59382;43.852;25.952;2022-07-30T13:30:43;4.93;;;3.60;;
71558;SDS011;59382;43.852;25.952;2022-07-30T13:33:09;3.83;;;3.53;;
71558;SDS011;59382;43.852;25.952;2022-07-30T13:35:35;4.45;;;3.13;;
71558;SDS011;59382;43.852;25.952;2022-07-30T13:38:01;5.55;;;3.50;;
71558;SDS011;59382;43.852;25.952;2022-07-30T13:40:27;3.65;;;3.35;;
71558;SDS011;59382;43.852;25.952;2022-07-30T13:42:59;3.72;;;3.42;;
71558;SDS011;59382;43.852;25.952;2022-07-30T13:45:26;3.53;;;3.22;;
71558;SDS011;59382;43.852;25.952;2022-07-30T13:47:52;5.25;;;3.10;;
71558;SDS011;59382;43.852;25.952;2022-07-30T13:50:17;3.58;;;3.28;;
71558;SDS011;59382;43.852;25.952;2022-07-30T13:52:43;3.33;;;3.08;;
71558;SDS011;59382;43.852;25.952;2022-07-30T13:55:09;4.38;;;3.47;;
71558;SDS011;59382;43.852;25.952;2022-07-30T13:57:35;7.07;;;2.90;;
71558;SDS011;59382;43.852;25.952;2022-07-30T14:00:02;3.08;;;2.88;;
71558;SDS011;59382;43.852;25.952;2022-07-30T14:02:29;3.33;;;3.13;;
71558;SDS011;59382;43.852;25.952;2022-07-30T14:04:55;5.75;;;3.25;;
71558;SDS011;59382;43.852;25.952;2022-07-30T14:07:21;4.07;;;3.60;;
71558;SDS011;59382;43.852;25.952;2022-07-30T14:09:46;4.22;;;3.33;;
71558;SDS011;59382;43.852;25.952;2022-07-30T14:12:12;3.03;;;2.83;;
71558;SDS011;59382;43.852;25.952;2022-07-30T14:14:38;3.38;;;3.05;;
71558;SDS011;59382;43.852;25.952;2022-07-30T14:17:04;13.95;;;2.90;;
71558;SDS011;59382;43.852;25.952;2022-07-30T14:19:29;5.03;;;4.10;;
71558;SDS011;59382;43.852;25.952;2022-07-30T14:21:55;4.63;;;2.75;;
71558;SDS011;59382;43.852;25.952;2022-07-30T14:24:21;2.92;;;2.72;;
71558;SDS011;59382;43.852;25.952;2022-07-30T14:26:47;3.40;;;3.15;;
71558;SDS011;59382;43.852;25.952;2022-07-30T14:29:13;4.55;;;3.30;;
71558;SDS011;59382;43.852;25.952;2022-07-30T14:31:39;4.82;;;3.38;;
71558;SDS011;59382;43.852;25.952;2022-07-30T14:34:04;6.07;;;3.72;;
71558;SDS011;59382;43.852;25.952;2022-07-30T14:36:30;3.10;;;2.80;;
71558;SDS011;59382;43.852;25.952;2022-07-30T14:38:59;4.03;;;3.15;;
71558;SDS011;59382;43.852;25.952;2022-07-30T14:41:34;3.40;;;3.20;;
71558;SDS011;59382;43.852;25.952;2022-07-30T14:44:01;3.45;;;3.10;;
71558;SDS011;59382;43.852;25.952;2022-07-30T14:46:30;3.20;;;2.80;;
71558;SDS011;59382;43.852;25.952;2022-07-30T14:48:56;7.78;;;3.00;;
71558;SDS011;59382;43.852;25.952;2022-07-30T14:51:22;3.22;;;3.03;;
71558;SDS011;59382;43.852;25.952;2022-07-30T14:53:48;4.60;;;2.92;;
71558;SDS011;59382;43.852;25.952;2022-07-30T14:56:16;3.25;;;3.00;;
71558;SDS011;59382;43.852;25.952;2022-07-30T14:58:44;11.95;;;3.70;;
71558;SDS011;59382;43.852;25.952;2022-07-30T15:01:13;4.30;;;3.67;;
71558;SDS011;59382;43.852;25.952;2022-07-30T15:03:43;7.38;;;3.47;;
71558;SDS011;59382;43.852;25.952;2022-07-30T15:06:10;5.85;;;4.20;;
71558;SDS011;59382;43.852;25.952;2022-07-30T15:08:39;4.15;;;3.40;;
71558;SDS011;59382;43.852;25.952;2022-07-30T15:11:04;3.00;;;2.78;;
71558;SDS011;59382;43.852;25.952;2022-07-30T15:13:31;3.42;;;3.10;;
71558;SDS011;59382;43.852;25.952;2022-07-30T15:15:56;8.10;;;3.10;;
71558;SDS011;59382;43.852;25.952;2022-07-30T15:18:25;3.25;;;2.95;;